Hominy, Oklahoma
Current Conditions -  °F | °C
As of 3:35 PM on Thursday 18 Dec 2014 (Local Time) from KOWP Reporting Station
Overcast Overcast  
Wind Chill: 43°   Ceiling: 800
Heat Index: 43°   Visibility: 10mi
Dew Point: 40°   Wind: 3mph
Humidity: 87%   Direction: 20°NNE
Pressure: 30.16"   Gusts: NA
Location:  36.41°N, 96.4°W
Report Text: KOWP 182135Z AUTO 02003KT 10SM OVC008 06/04 A3016 RMK AO2 T00620042
Loading
Personal Weather Stations






























Interactive Weather Map New forecast layout! Learn more

10-Day Weather Forecast

Advertisements
Track Severe Weather on mobile